Time;durP1;ratioP1;P1;durP2;ratioP2;P2;SDS_P1;SDS_P2;PMS_P1;PMS_P2;Temp;Humidity;BMP_temperature;BMP_pressure;BME280_temperature;BME280_humidity;BME280_pressure;Samples;Min_cycle;Max_cycle;Signal;HPM_P1;HPM_P2
2024/02/08 00:01:03;;;;;;;12.77;9.53;;;4.80;99.90;;;;;;5075977;28;20216;-71
2024/02/08 00:03:29;;;;;;;11.17;10.00;;;4.80;99.90;;;;;;5075962;28;20288;-70
2024/02/08 00:05:54;;;;;;;10.73;9.60;;;4.80;99.90;;;;;;5094030;28;20192;-71
2024/02/08 00:08:20;;;;;;;12.60;10.73;;;4.80;99.90;;;;;;5094735;28;20166;-71
2024/02/08 00:10:47;;;;;;;11.80;10.60;;;4.80;99.90;;;;;;5094807;28;20662;-71
2024/02/08 00:13:13;;;;;;;16.67;13.20;;;4.80;99.90;;;;;;5093829;28;20257;-71
2024/02/08 00:15:39;;;;;;;14.43;11.90;;;4.70;99.90;;;;;;5093720;28;20185;-71
2024/02/08 00:18:05;;;;;;;15.57;13.43;;;4.70;99.90;;;;;;5094004;28;20169;-71
2024/02/08 00:20:31;;;;;;;17.10;13.27;;;4.70;99.90;;;;;;5075389;28;20165;-71
2024/02/08 00:22:57;;;;;;;19.13;14.57;;;4.70;99.90;;;;;;5075509;28;20260;-71
2024/02/08 00:25:24;;;;;;;18.53;14.10;;;4.70;99.90;;;;;;5093415;28;20327;-71
2024/02/08 00:27:52;;;;;;;14.37;12.80;;;4.70;99.90;;;;;;5093593;28;20708;-71
2024/02/08 00:30:17;;;;;;;16.73;13.17;;;4.70;99.90;;;;;;5093350;28;20590;-71
2024/02/08 00:32:46;;;;;;;17.60;13.77;;;4.80;99.90;;;;;;5093219;28;20260;-71
2024/02/08 00:35:17;;;;;;;19.10;13.63;;;4.70;99.90;;;;;;5092935;28;20663;-71
2024/02/08 00:37:46;;;;;;;18.33;13.83;;;4.70;99.90;;;;;;5093586;28;20184;-71
2024/02/08 00:40:18;;;;;;;18.77;14.37;;;4.70;99.90;;;;;;5094514;28;20174;-72
2024/02/08 00:42:46;;;;;;;15.87;13.70;;;4.70;99.90;;;;;;5106871;28;20196;-71
2024/02/08 00:45:14;;;;;;;18.50;13.47;;;4.70;99.90;;;;;;5115411;28;20200;-71
2024/02/08 00:47:40;;;;;;;15.87;13.47;;;4.70;99.90;;;;;;5115261;28;20256;-71
2024/02/08 00:50:06;;;;;;;17.60;13.27;;;4.70;99.90;;;;;;5113241;28;20207;-71
2024/02/08 00:52:33;;;;;;;18.97;13.63;;;4.70;99.90;;;;;;5115213;28;20176;-71
2024/02/08 00:54:59;;;;;;;16.53;14.13;;;4.70;99.90;;;;;;5115874;28;20216;-71
2024/02/08 00:57:29;;;;;;;14.50;12.23;;;4.70;99.90;;;;;;5114756;28;20176;-71
2024/02/08 00:59:58;;;;;;;20.13;13.70;;;4.80;99.90;;;;;;5114749;28;20169;-71
2024/02/08 01:02:24;;;;;;;18.97;13.70;;;4.80;99.90;;;;;;5114901;28;20168;-71
2024/02/08 01:04:49;;;;;;;18.43;13.83;;;4.80;99.90;;;;;;5104810;28;20579;-71
2024/02/08 01:07:15;;;;;;;18.10;14.13;;;4.90;99.90;;;;;;5076664;28;20176;-71
2024/02/08 01:09:41;;;;;;;15.93;13.00;;;4.90;99.90;;;;;;5094370;28;20200;-72
2024/02/08 01:12:07;;;;;;;17.87;13.20;;;4.80;99.90;;;;;;5101261;28;20185;-71
2024/02/08 01:14:32;;;;;;;16.30;13.63;;;4.80;99.90;;;;;;5114696;28;20261;-71
2024/02/08 01:16:58;;;;;;;19.03;14.37;;;4.80;99.90;;;;;;5114757;28;20245;-72
2024/02/08 01:19:25;;;;;;;21.23;15.10;;;4.90;99.90;;;;;;5115103;28;20173;-71
2024/02/08 01:21:51;;;;;;;22.60;15.30;;;4.90;99.90;;;;;;5096124;28;20173;-71
2024/02/08 01:24:18;;;;;;;24.27;15.80;;;4.80;99.90;;;;;;5114956;28;20603;-71
2024/02/08 01:26:48;;;;;;;24.00;15.90;;;4.80;99.90;;;;;;5108304;28;20208;-71
2024/02/08 01:29:14;;;;;;;21.43;16.00;;;4.80;99.90;;;;;;5095867;28;20173;-71
2024/02/08 01:31:40;;;;;;;22.27;16.93;;;4.80;99.90;;;;;;5094105;28;20204;-71
2024/02/08 01:34:07;;;;;;;22.67;15.70;;;4.80;99.90;;;;;;5078719;28;20169;-71
2024/02/08 01:36:35;;;;;;;21.83;16.50;;;4.80;99.90;;;;;;5098045;28;20205;-71
2024/02/08 01:39:12;;;;;;;29.47;17.67;;;4.90;99.90;;;;;;5096857;28;20536;-73
2024/02/08 01:41:42;;;;;;;21.67;16.30;;;4.90;99.90;;;;;;5074051;28;20207;-72
2024/02/08 01:44:09;;;;;;;23.90;16.83;;;4.90;99.90;;;;;;5074211;28;20193;-72
2024/02/08 01:46:39;;;;;;;25.57;16.70;;;4.90;99.90;;;;;;5055126;28;20194;-71
2024/02/08 01:49:12;;;;;;;26.97;17.50;;;4.90;99.90;;;;;;5073697;28;20170;-71
2024/02/08 01:51:39;;;;;;;25.03;16.90;;;4.90;99.90;;;;;;5073214;28;20349;-71
2024/02/08 01:54:12;;;;;;;31.47;17.33;;;4.90;99.90;;;;;;5077388;28;20167;-71
2024/02/08 01:56:44;;;;;;;23.30;18.10;;;4.90;99.90;;;;;;5114122;28;20193;-72
2024/02/08 01:59:14;;;;;;;26.20;19.20;;;4.90;99.90;;;;;;5113994;28;20168;-71
2024/02/08 02:01:45;;;;;;;25.83;17.80;;;4.90;99.90;;;;;;5113647;28;20164;-71
2024/02/08 02:04:13;;;;;;;26.13;17.37;;;4.90;99.90;;;;;;5113701;28;20652;-71
2024/02/08 02:06:42;;;;;;;24.73;18.00;;;4.90;99.90;;;;;;5113001;28;20254;-71
2024/02/08 02:09:23;;;;;;;26.83;17.33;;;5.00;99.90;;;;;;5108926;28;20189;-71
2024/02/08 02:12:01;;;;;;;26.57;18.27;;;5.00;99.90;;;;;;5074835;28;20576;-71
2024/02/08 02:14:30;;;;;;;28.90;17.40;;;4.90;99.90;;;;;;5093008;28;20165;-71
2024/02/08 02:17:12;;;;;;;27.60;17.37;;;4.90;99.90;;;;;;5092923;28;20198;-71
2024/02/08 02:19:39;;;;;;;22.97;17.00;;;4.90;99.90;;;;;;5074634;28;20173;-71
2024/02/08 02:22:07;;;;;;;27.53;17.93;;;4.90;99.90;;;;;;5092531;28;20626;-71
2024/02/08 02:24:36;;;;;;;32.47;18.10;;;5.00;99.90;;;;;;5102170;28;20291;-71
2024/02/08 02:27:04;;;;;;;29.40;18.00;;;4.90;99.90;;;;;;5112865;28;20240;-71
2024/02/08 02:29:31;;;;;;;26.93;18.47;;;4.90;99.90;;;;;;5112914;28;20161;-71
2024/02/08 02:31:59;;;;;;;26.77;17.60;;;4.90;99.90;;;;;;5113037;28;20710;-71
2024/02/08 02:34:26;;;;;;;25.00;16.43;;;4.90;99.90;;;;;;5113125;28;20203;-71
2024/02/08 02:36:58;;;;;;;25.70;16.40;;;4.90;99.90;;;;;;5109063;28;20259;-71
2024/02/08 02:39:31;;;;;;;29.50;16.13;;;4.90;99.90;;;;;;5093097;28;20541;-71
2024/02/08 02:41:59;;;;;;;27.80;16.70;;;4.80;99.90;;;;;;5092145;28;20174;-71
2024/02/08 02:44:29;;;;;;;25.57;15.40;;;4.70;99.90;;;;;;5093614;28;20209;-71
2024/02/08 02:46:59;;;;;;;29.23;16.73;;;4.70;99.90;;;;;;5092795;28;20185;-71
2024/02/08 02:49:26;;;;;;;24.30;16.43;;;4.80;99.90;;;;;;5092466;28;20157;-71
2024/02/08 02:51:52;;;;;;;23.23;14.93;;;4.80;99.90;;;;;;5109026;28;20180;-71
2024/02/08 02:54:22;;;;;;;22.10;14.80;;;4.80;99.90;;;;;;5112920;28;20196;-73
2024/02/08 02:56:50;;;;;;;21.77;15.27;;;4.80;99.90;;;;;;5114132;28;20281;-71
2024/02/08 02:59:20;;;;;;;20.90;15.03;;;4.80;99.90;;;;;;5115241;28;20212;-71
2024/02/08 03:01:49;;;;;;;22.03;15.33;;;4.80;99.90;;;;;;5098102;28;20180;-71
2024/02/08 03:04:16;;;;;;;20.33;14.43;;;4.90;99.90;;;;;;5116859;28;20241;-71
2024/02/08 03:06:52;;;;;;;20.73;14.70;;;4.90;99.90;;;;;;5116386;28;20189;-71
2024/02/08 03:09:23;;;;;;;19.77;14.60;;;4.90;99.90;;;;;;5096431;28;20177;-71
2024/02/08 03:11:50;;;;;;;19.17;13.40;;;5.00;99.90;;;;;;5117170;28;20172;-70
2024/02/08 03:14:15;;;;;;;20.83;14.23;;;5.00;99.90;;;;;;5116614;28;20172;-71
2024/02/08 03:16:45;;;;;;;17.80;13.60;;;5.00;99.90;;;;;;5115962;28;20192;-71
2024/02/08 03:19:11;;;;;;;19.53;13.47;;;5.00;99.90;;;;;;5116330;28;20165;-71
2024/02/08 03:21:36;;;;;;;19.07;13.43;;;5.10;99.90;;;;;;5116230;28;20179;-71
2024/02/08 03:24:08;;;;;;;14.67;12.63;;;5.00;99.90;;;;;;5108318;28;20257;-70
2024/02/08 03:26:47;;;;;;;18.47;13.40;;;5.00;99.90;;;;;;5077541;28;20289;-71
2024/02/08 03:29:13;;;;;;;15.73;12.87;;;5.10;99.90;;;;;;5095747;28;20165;-72
2024/02/08 03:31:46;;;;;;;14.87;12.33;;;5.10;99.90;;;;;;5095362;28;20213;-70
2024/02/08 03:34:29;;;;;;;20.57;12.73;;;5.10;99.90;;;;;;5077586;28;20174;-70
2024/02/08 03:36:58;;;;;;;15.10;13.03;;;5.00;99.90;;;;;;5098160;28;20199;-71
2024/02/08 03:39:27;;;;;;;20.20;12.83;;;5.00;99.90;;;;;;5116355;28;20185;-71
2024/02/08 03:42:02;;;;;;;20.47;14.03;;;5.00;99.90;;;;;;5095319;28;20192;-70
2024/02/08 03:44:31;;;;;;;16.10;12.73;;;5.00;99.90;;;;;;5095447;28;20201;-70
2024/02/08 03:47:03;;;;;;;19.83;13.47;;;5.00;99.90;;;;;;5095418;28;20261;-70
2024/02/08 03:49:29;;;;;;;20.37;12.90;;;5.00;99.90;;;;;;5095493;28;20169;-70
2024/02/08 03:51:56;;;;;;;15.60;13.57;;;5.00;99.90;;;;;;5106261;28;20207;-70
2024/02/08 03:54:24;;;;;;;16.77;13.03;;;5.00;99.90;;;;;;5116019;28;20203;-70
2024/02/08 03:56:50;;;;;;;19.37;13.17;;;5.00;99.90;;;;;;5115459;28;20228;-71
2024/02/08 03:59:26;;;;;;;15.90;13.10;;;5.10;99.90;;;;;;5115772;28;20204;-70
2024/02/08 04:02:05;;;;;;;16.17;13.47;;;5.10;99.90;;;;;;5104432;28;20196;-71
2024/02/08 04:04:49;;;;;;;18.10;13.23;;;5.10;99.90;;;;;;5095498;28;20272;-70
2024/02/08 04:07:19;;;;;;;21.27;14.33;;;5.10;99.90;;;;;;5098845;28;20177;-70
2024/02/08 04:09:50;;;;;;;18.80;13.47;;;5.10;99.90;;;;;;5114682;28;20260;-70
2024/02/08 04:53:38;;;;;;;18.90;13.80;;;5.20;99.90;;;;;;5113937;28;20179;-73
2024/02/08 04:56:10;;;;;;;17.60;13.43;;;5.30;99.90;;;;;;5094201;28;20189;-72
2024/02/08 04:58:41;;;;;;;18.73;14.60;;;5.30;99.90;;;;;;5093641;28;20686;-71
2024/02/08 05:01:10;;;;;;;21.77;14.40;;;5.30;99.90;;;;;;5093940;28;20176;-71
2024/02/08 05:03:37;;;;;;;23.33;14.77;;;5.30;99.90;;;;;;5075654;28;20523;-71
2024/02/08 05:06:18;;;;;;;25.40;14.80;;;5.30;99.90;;;;;;5093416;28;20197;-71
2024/02/08 05:08:47;;;;;;;22.63;16.03;;;5.30;99.90;;;;;;5094593;28;20172;-71
2024/02/08 05:11:14;;;;;;;19.77;14.97;;;5.30;99.90;;;;;;5093737;28;20174;-71
2024/02/08 05:13:44;;;;;;;22.40;15.47;;;5.30;99.90;;;;;;5093919;28;20165;-71
2024/02/08 05:16:14;;;;;;;20.30;14.90;;;5.30;99.90;;;;;;5093884;28;20193;-71
2024/02/08 05:18:41;;;;;;;20.63;14.50;;;5.30;99.90;;;;;;5093469;28;20184;-72
2024/02/08 05:21:11;;;;;;;20.47;14.47;;;5.30;99.90;;;;;;5092337;28;20188;-72
2024/02/08 05:23:40;;;;;;;18.90;14.33;;;5.30;99.90;;;;;;5102770;28;20245;-72
2024/02/08 05:26:10;;;;;;;19.90;14.33;;;5.30;99.90;;;;;;5113715;28;20189;-71
2024/02/08 05:28:39;;;;;;;22.37;16.10;;;5.20;99.90;;;;;;5113742;28;20652;-71
2024/02/08 05:31:05;;;;;;;24.50;15.07;;;5.30;99.90;;;;;;5113162;28;20528;-71
2024/02/08 05:33:32;;;;;;;25.30;15.33;;;5.20;99.90;;;;;;5098089;28;20184;-71
2024/02/08 05:38:27;;;;;;;26.37;15.97;;;5.20;99.90;;;;;;5070596;28;20221;-73
2024/02/08 05:40:52;;;;;;;22.73;14.57;;;5.20;99.90;;;;;;5087198;28;20169;-73
2024/02/08 05:43:28;;;;;;;21.93;14.57;;;5.10;99.90;;;;;;5091883;28;20230;-74
2024/02/08 05:45:56;;;;;;;22.17;14.03;;;5.00;99.90;;;;;;5091494;28;20149;-74
2024/02/08 05:48:27;;;;;;;25.77;16.03;;;4.90;99.90;;;;;;5071581;28;20242;-74
2024/02/08 05:50:57;;;;;;;25.50;15.57;;;4.90;99.90;;;;;;5053255;28;20181;-74
2024/02/08 05:53:24;;;;;;;31.37;17.33;;;4.90;99.90;;;;;;5053494;28;20166;-74
2024/02/08 05:55:53;;;;;;;25.20;16.83;;;5.00;99.90;;;;;;5054256;28;20170;-74
2024/02/08 05:58:22;;;;;;;27.40;17.53;;;4.90;99.90;;;;;;5051524;28;20198;-74
2024/02/08 06:01:01;;;;;;;30.80;17.90;;;4.90;99.90;;;;;;5051091;28;20198;-74
2024/02/08 06:03:33;;;;;;;27.73;17.20;;;4.90;99.90;;;;;;5033544;28;20647;-74
2024/02/08 06:06:06;;;;;;;28.17;16.23;;;4.80;99.90;;;;;;5051165;28;20162;-74
2024/02/08 06:08:42;;;;;;;26.77;17.33;;;4.80;99.90;;;;;;5053099;28;20513;-74
2024/02/08 06:11:23;;;;;;;28.43;15.90;;;4.70;99.90;;;;;;5050844;28;20166;-74
2024/02/08 06:13:58;;;;;;;28.67;15.83;;;4.70;99.90;;;;;;5051107;28;20249;-74
2024/02/08 06:19:12;;;;;;;32.70;16.77;;;4.70;99.90;;;;;;5050980;28;20231;-74
2024/02/08 06:21:40;;;;;;;31.73;17.20;;;4.70;99.90;;;;;;5050748;28;20606;-74
2024/02/08 06:24:29;;;;;;;27.43;18.00;;;4.70;99.90;;;;;;5050701;28;20586;-74
2024/02/08 06:27:01;;;;;;;28.47;17.50;;;4.70;99.90;;;;;;5060829;28;20199;-75
2024/02/08 06:29:42;;;;;;;27.73;18.57;;;4.70;99.90;;;;;;5050743;28;20219;-74
2024/02/08 06:37:49;;;;;;;33.27;17.60;;;4.70;99.90;;;;;;5070454;28;20212;-74
2024/02/08 06:40:21;;;;;;;24.77;16.03;;;4.80;99.90;;;;;;5070670;28;20169;-74
2024/02/08 06:45:25;;;;;;;28.00;18.30;;;4.80;99.90;;;;;;5070689;28;20193;-74
2024/02/08 06:48:14;;;;;;;28.97;18.10;;;4.80;99.90;;;;;;5059067;28;20193;-74
2024/02/08 07:37:54;;;;;;;27.23;16.67;;;4.80;99.90;;;;;;5032205;28;20284;-77
2024/02/08 07:40:26;;;;;;;26.00;17.57;;;4.70;99.90;;;;;;5037675;28;20191;-76
2024/02/08 07:45:44;;;;;;;28.10;17.93;;;4.70;99.90;;;;;;5043130;28;20207;-75
2024/02/08 07:48:13;;;;;;;24.83;16.87;;;4.70;99.90;;;;;;5053692;28;20201;-76
2024/02/08 07:50:44;;;;;;;29.67;18.70;;;4.70;99.90;;;;;;5082628;28;20170;-74
2024/02/08 07:53:28;;;;;;;24.77;17.00;;;4.70;99.90;;;;;;5082158;28;20174;-76
2024/02/08 07:55:58;;;;;;;21.13;16.10;;;4.70;99.90;;;;;;5079003;28;20173;-76
2024/02/08 07:58:27;;;;;;;29.90;17.23;;;4.70;99.90;;;;;;5063995;28;20190;-75
2024/02/08 08:00:56;;;;;;;25.10;17.87;;;4.80;99.90;;;;;;5062020;28;20257;-76
2024/02/08 08:03:26;;;;;;;25.87;17.03;;;4.80;99.90;;;;;;5060106;28;20167;-74
2024/02/08 08:05:56;;;;;;;26.77;15.57;;;4.90;99.90;;;;;;5052847;28;20182;-75
2024/02/08 08:08:25;;;;;;;26.37;16.47;;;4.90;99.90;;;;;;5053026;28;20186;-75
2024/02/08 08:11:04;;;;;;;22.27;13.60;;;4.90;99.90;;;;;;5052245;28;20199;-74
2024/02/08 08:18:59;;;;;;;24.93;15.43;;;5.10;99.90;;;;;;5072863;28;20166;-75
2024/02/08 08:21:29;;;;;;;27.43;14.03;;;5.20;99.90;;;;;;5072950;28;20190;-74
2024/02/08 08:24:02;;;;;;;19.50;12.87;;;5.20;99.90;;;;;;5072884;28;20233;-75
2024/02/08 08:26:44;;;;;;;20.63;14.10;;;5.20;99.90;;;;;;5032955;28;20253;-74
2024/02/08 08:29:19;;;;;;;19.23;12.47;;;5.20;99.90;;;;;;5032849;28;20183;-74
2024/02/08 08:31:53;;;;;;;22.07;13.40;;;5.20;99.90;;;;;;5054084;28;20181;-74
2024/02/08 08:36:59;;;;;;;18.50;12.30;;;5.20;99.90;;;;;;5072450;28;20213;-74
2024/02/08 08:42:16;;;;;;;20.07;13.20;;;5.20;99.90;;;;;;5072069;28;20189;-75
2024/02/08 08:45:04;;;;;;;16.90;12.00;;;5.30;99.90;;;;;;5046695;28;20212;-75
2024/02/08 08:47:30;;;;;;;17.20;12.13;;;5.20;99.90;;;;;;5056376;28;20284;-75
2024/02/08 08:50:17;;;;;;;16.73;11.33;;;5.10;99.90;;;;;;5048432;28;20240;-75
2024/02/08 08:52:57;;;;;;;17.27;12.50;;;5.20;99.90;;;;;;5070402;28;20586;-75
2024/02/08 08:55:23;;;;;;;19.07;12.47;;;5.30;99.90;;;;;;5072491;28;20181;-75
2024/02/08 08:58:00;;;;;;;19.53;13.03;;;5.30;99.90;;;;;;5071951;28;20194;-75
2024/02/08 09:00:37;;;;;;;18.80;12.83;;;5.40;99.90;;;;;;5072245;28;20169;-74
2024/02/08 09:03:10;;;;;;;18.97;13.23;;;5.40;99.90;;;;;;5071594;28;20178;-74
2024/02/08 09:05:36;;;;;;;17.70;11.50;;;5.40;99.90;;;;;;5057413;28;20204;-75
2024/02/08 09:08:09;;;;;;;15.93;10.97;;;5.40;99.90;;;;;;5051855;28;20286;-74
2024/02/08 09:10:40;;;;;;;18.53;12.10;;;5.40;99.90;;;;;;5033962;28;20182;-75
2024/02/08 09:13:15;;;;;;;17.87;11.63;;;5.40;99.90;;;;;;5052964;28;20209;-74
2024/02/08 09:15:48;;;;;;;17.13;11.30;;;5.40;99.90;;;;;;5052285;28;20185;-75
2024/02/08 09:18:15;;;;;;;18.83;11.60;;;5.40;99.90;;;;;;5051788;28;20190;-74
2024/02/08 09:20:44;;;;;;;17.97;11.27;;;5.50;99.90;;;;;;5051738;28;20179;-75
2024/02/08 09:23:12;;;;;;;19.83;13.17;;;5.60;99.90;;;;;;5051936;28;20171;-74
2024/02/08 09:25:44;;;;;;;22.37;13.10;;;5.60;99.90;;;;;;5063211;28;20204;-74
2024/02/08 09:28:35;;;;;;;16.50;12.20;;;5.70;99.90;;;;;;5071951;28;20194;-73
2024/02/08 09:31:12;;;;;;;18.03;13.07;;;5.70;99.90;;;;;;5071669;28;20257;-73
2024/02/08 09:33:45;;;;;;;19.13;11.97;;;5.70;99.90;;;;;;5071982;28;20231;-74
2024/02/08 09:36:14;;;;;;;18.17;11.53;;;5.70;99.90;;;;;;5071006;28;20202;-74
2024/02/08 09:38:44;;;;;;;17.50;12.37;;;5.70;99.90;;;;;;5052022;28;20181;-75
2024/02/08 09:41:17;;;;;;;23.23;13.57;;;5.70;99.90;;;;;;5060289;28;20197;-74
2024/02/08 09:43:47;;;;;;;19.07;12.27;;;5.70;99.90;;;;;;5053781;28;20714;-74
2024/02/08 09:47:04;;;;;;;19.67;12.60;;;5.70;99.90;;;;;;5071064;28;20720;-74
2024/02/08 09:49:16;;;;;;;22.17;14.37;;;5.70;99.90;;;;;;5025596;28;20273;-75
2024/02/08 09:51:53;;;;;;;16.57;11.90;;;5.70;99.90;;;;;;5031543;28;20226;-74
2024/02/08 09:54:27;;;;;;;17.87;12.33;;;5.70;99.90;;;;;;5031905;28;20271;-74
2024/02/08 09:57:01;;;;;;;15.93;11.93;;;5.70;99.90;;;;;;5030920;28;20203;-74
2024/02/08 10:02:23;;;;;;;12.63;10.70;;;5.80;99.90;;;;;;5047934;28;20230;-73
2024/02/08 10:04:50;;;;;;;12.53;9.77;;;5.70;99.90;;;;;;5071506;28;20253;-74
2024/02/08 10:07:26;;;;;;;12.73;10.67;;;5.80;99.90;;;;;;5070558;28;20186;-74
2024/02/08 10:09:59;;;;;;;12.60;10.37;;;5.90;99.90;;;;;;5071162;28;20173;-74
2024/02/08 10:12:40;;;;;;;12.03;10.33;;;5.90;99.90;;;;;;5071071;28;20537;-74
2024/02/08 10:15:14;;;;;;;15.73;9.80;;;5.90;99.90;;;;;;5055755;28;20205;-74
2024/02/08 10:17:43;;;;;;;14.43;9.33;;;5.80;99.90;;;;;;5050892;28;20214;-74
2024/02/08 10:22:54;;;;;;;12.87;9.90;;;5.70;99.90;;;;;;5050927;28;20632;-75
2024/02/08 10:28:08;;;;;;;13.13;9.23;;;5.60;99.90;;;;;;5071256;28;20419;-75
2024/02/08 10:30:36;;;;;;;13.63;9.73;;;5.60;99.90;;;;;;5071108;28;20170;-75
2024/02/08 10:33:04;;;;;;;13.57;9.43;;;5.50;99.90;;;;;;5070513;28;20587;-75
2024/02/08 10:35:39;;;;;;;12.57;9.63;;;5.60;99.90;;;;;;5071153;28;20654;-75
2024/02/08 10:38:18;;;;;;;14.27;10.50;;;5.60;99.90;;;;;;5070848;28;20201;-76
2024/02/08 10:40:55;;;;;;;12.17;9.70;;;5.70;99.90;;;;;;5035940;28;20170;-74
2024/02/08 10:43:25;;;;;;;13.53;9.60;;;5.60;99.90;;;;;;5058911;28;20225;-76
2024/02/08 10:46:02;;;;;;;11.33;9.90;;;5.60;99.90;;;;;;5061809;28;20186;-75
2024/02/08 10:48:31;;;;;;;9.80;8.80;;;5.60;99.90;;;;;;5052739;28;20576;-77
2024/02/08 10:51:02;;;;;;;12.80;10.03;;;5.70;99.90;;;;;;5047419;28;20181;-74
2024/02/08 10:53:43;;;;;;;10.43;9.37;;;5.70;99.90;;;;;;5068554;28;20176;-75
2024/02/08 10:56:14;;;;;;;13.27;9.33;;;5.70;99.90;;;;;;5053983;28;20254;-75
2024/02/08 10:59:09;;;;;;;11.10;9.27;;;5.80;99.90;;;;;;5060448;28;20210;-75
2024/02/08 11:04:20;;;;;;;15.03;11.00;;;5.80;99.90;;;;;;5050433;28;20202;-76
2024/02/08 11:09:37;;;;;;;11.80;10.03;;;5.70;99.90;;;;;;5050224;28;20193;-76
2024/02/08 11:12:08;;;;;;;10.77;9.43;;;5.70;99.90;;;;;;5050007;28;20171;-75
2024/02/08 11:14:51;;;;;;;11.27;9.93;;;5.70;99.90;;;;;;5050353;28;20175;-75
2024/02/08 11:17:23;;;;;;;9.50;8.57;;;5.70;99.90;;;;;;5050136;28;20194;-75
2024/02/08 11:19:56;;;;;;;10.10;8.20;;;5.80;99.90;;;;;;5053595;28;20202;-75
2024/02/08 11:22:39;;;;;;;11.40;8.83;;;5.70;99.90;;;;;;5054055;28;20255;-74
2024/02/08 11:25:33;;;;;;;12.33;8.03;;;5.70;99.90;;;;;;5053976;28;20234;-74
2024/02/08 11:27:55;;;;;;;11.10;7.97;;;5.70;99.90;;;;;;5058334;28;20199;-74
2024/02/08 11:30:34;;;;;;;12.30;8.57;;;5.70;99.90;;;;;;5054900;28;20244;-75
2024/02/08 11:33:02;;;;;;;10.63;8.83;;;5.80;99.90;;;;;;5053779;28;20178;-75
2024/02/08 11:35:35;;;;;;;9.67;8.40;;;5.80;99.90;;;;;;5070754;28;20178;-74
2024/02/08 11:38:21;;;;;;;9.60;7.90;;;6.00;99.90;;;;;;5039883;28;20290;-76
2024/02/08 11:40:50;;;;;;;10.57;8.47;;;6.10;99.90;;;;;;5057211;28;20262;-76
2024/02/08 11:43:25;;;;;;;8.57;7.57;;;6.10;99.90;;;;;;5067629;28;20193;-76
2024/02/08 11:45:53;;;;;;;8.70;7.80;;;6.10;99.90;;;;;;5054553;28;20241;-76
2024/02/08 11:48:29;;;;;;;8.53;7.73;;;6.10;99.90;;;;;;5054534;28;20175;-76
2024/02/08 11:50:58;;;;;;;8.83;7.50;;;6.20;99.90;;;;;;5053943;28;20163;-77
2024/02/08 11:53:32;;;;;;;9.17;8.23;;;6.30;99.90;;;;;;5055280;28;20170;-77
2024/02/08 11:56:08;;;;;;;9.87;8.50;;;6.30;99.90;;;;;;5054983;28;20599;-77
2024/02/08 11:58:41;;;;;;;9.13;8.13;;;6.30;99.90;;;;;;5054613;28;20167;-75
2024/02/08 12:01:09;;;;;;;9.33;8.20;;;6.40;99.90;;;;;;5054952;28;20171;-76
2024/02/08 12:03:41;;;;;;;8.70;7.87;;;6.40;99.90;;;;;;5043931;28;20706;-77
2024/02/08 12:06:29;;;;;;;8.93;8.03;;;6.30;99.90;;;;;;5034301;28;20192;-76
2024/02/08 12:09:02;;;;;;;7.60;6.93;;;6.30;99.90;;;;;;5034187;28;20210;-76
2024/02/08 12:11:30;;;;;;;10.80;8.80;;;6.30;99.90;;;;;;5035129;28;20168;-76
2024/02/08 12:14:00;;;;;;;8.93;8.03;;;6.30;99.90;;;;;;5034841;28;20199;-76
2024/02/08 12:16:26;;;;;;;8.83;7.57;;;6.40;99.90;;;;;;5070462;28;20579;-77
2024/02/08 12:18:56;;;;;;;8.33;7.53;;;6.30;99.90;;;;;;5058221;28;20248;-75
2024/02/08 12:21:23;;;;;;;9.47;7.70;;;6.40;99.90;;;;;;5062769;28;20231;-76
2024/02/08 12:23:57;;;;;;;8.33;7.53;;;6.50;99.90;;;;;;5070842;28;20256;-76
2024/02/08 12:26:25;;;;;;;8.60;7.80;;;6.50;99.90;;;;;;5065733;28;20202;-75
2024/02/08 12:28:57;;;;;;;10.20;8.50;;;6.40;99.90;;;;;;5072677;28;20185;-75
2024/02/08 12:31:29;;;;;;;10.07;9.07;;;6.50;99.90;;;;;;5073218;28;20209;-75
2024/02/08 12:33:58;;;;;;;10.80;9.70;;;6.50;99.90;;;;;;5074226;28;20170;-74
2024/02/08 12:36:28;;;;;;;10.07;9.07;;;6.50;99.90;;;;;;5072569;28;20210;-73
2024/02/08 12:38:59;;;;;;;10.80;9.13;;;6.60;99.90;;;;;;5072656;28;20170;-74
2024/02/08 12:41:25;;;;;;;11.23;10.00;;;6.60;99.90;;;;;;5058151;28;20494;-73
2024/02/08 12:43:54;;;;;;;9.70;8.80;;;6.60;99.90;;;;;;5052794;28;20198;-74
2024/02/08 12:46:20;;;;;;;10.87;9.87;;;6.50;99.90;;;;;;5053016;28;20269;-74
2024/02/08 12:48:49;;;;;;;9.80;8.80;;;6.60;99.90;;;;;;5053783;28;20616;-74
2024/02/08 12:51:22;;;;;;;10.23;9.20;;;6.60;99.90;;;;;;5053483;28;20178;-76
2024/02/08 12:53:56;;;;;;;9.80;8.80;;;6.60;99.90;;;;;;5056610;28;20162;-76
2024/02/08 12:56:22;;;;;;;12.23;9.57;;;6.70;99.90;;;;;;5056075;28;20569;-75
2024/02/08 12:59:01;;;;;;;9.87;8.87;;;6.70;99.90;;;;;;5055744;28;20224;-75
2024/02/08 13:01:38;;;;;;;11.67;8.63;;;6.70;99.90;;;;;;5056507;28;20517;-76
2024/02/08 13:04:05;;;;;;;11.03;9.50;;;6.80;99.90;;;;;;5069426;28;20212;-76
2024/02/08 13:06:31;;;;;;;10.27;9.20;;;6.90;99.90;;;;;;5057672;28;20655;-76
2024/02/08 13:09:25;;;;;;;11.17;9.60;;;7.00;99.90;;;;;;5074792;28;20200;-76
2024/02/08 13:12:17;;;;;;;10.00;9.07;;;7.00;99.90;;;;;;5074156;28;20634;-76
2024/02/08 13:14:49;;;;;;;10.23;9.23;;;7.00;99.90;;;;;;5074952;28;20543;-76
2024/02/08 13:17:24;;;;;;;10.73;9.40;;;7.00;99.90;;;;;;5061975;28;20237;-76
2024/02/08 13:19:57;;;;;;;10.03;8.90;;;7.00;99.90;;;;;;5054084;28;20661;-76
2024/02/08 13:22:24;;;;;;;12.77;8.83;;;7.00;99.90;;;;;;5055095;28;20182;-76
2024/02/08 13:24:53;;;;;;;12.80;9.77;;;7.00;99.90;;;;;;5070762;28;20640;-76
2024/02/08 13:27:24;;;;;;;10.63;9.63;;;7.00;99.90;;;;;;5074133;28;20190;-76
2024/02/08 13:29:53;;;;;;;11.43;9.93;;;7.10;99.90;;;;;;5072710;28;20241;-76
2024/02/08 13:32:24;;;;;;;16.50;9.37;;;7.10;99.90;;;;;;5072729;28;20232;-76
2024/02/08 13:34:54;;;;;;;10.77;9.63;;;7.20;99.90;;;;;;5073988;28;20181;-75
2024/02/08 13:37:22;;;;;;;11.07;9.80;;;7.20;99.90;;;;;;5073659;28;20217;-75
2024/02/08 13:39:49;;;;;;;12.07;9.80;;;7.20;99.90;;;;;;5055359;28;20182;-76
2024/02/08 13:42:15;;;;;;;12.47;9.57;;;7.30;99.90;;;;;;5051877;28;20258;-75
2024/02/08 13:44:44;;;;;;;11.73;10.47;;;7.40;99.90;;;;;;5043622;28;20206;-75
2024/02/08 13:47:11;;;;;;;11.83;10.20;;;7.50;99.90;;;;;;5072838;28;20304;-76
2024/02/08 13:49:37;;;;;;;12.53;11.20;;;7.60;99.90;;;;;;5043854;28;20190;-75
2024/02/08 13:52:06;;;;;;;15.47;11.83;;;7.70;99.90;;;;;;5055044;28;20699;-76
2024/02/08 13:54:37;;;;;;;13.63;11.50;;;7.70;99.90;;;;;;5051603;28;20545;-75
2024/02/08 13:57:14;;;;;;;13.77;12.43;;;7.80;99.90;;;;;;5051199;28;20190;-76
2024/02/08 13:59:46;;;;;;;13.67;12.17;;;7.80;99.90;;;;;;5051094;28;20181;-76
2024/02/08 14:02:21;;;;;;;14.10;12.70;;;7.90;99.90;;;;;;5050785;28;20544;-74
2024/02/08 14:04:52;;;;;;;15.03;13.33;;;7.90;99.90;;;;;;5065662;28;20285;-75
2024/02/08 14:07:20;;;;;;;14.43;12.87;;;7.90;99.90;;;;;;5070957;28;20722;-75
2024/02/08 14:09:52;;;;;;;15.33;12.77;;;7.90;99.90;;;;;;5070453;28;20201;-75
2024/02/08 14:12:24;;;;;;;14.20;12.20;;;7.80;99.90;;;;;;5065634;28;20186;-75
2024/02/08 14:14:53;;;;;;;17.43;14.53;;;7.80;99.90;;;;;;5051146;28;20198;-76
2024/02/08 14:17:20;;;;;;;14.50;12.83;;;7.90;99.90;;;;;;5050284;28;20190;-74
2024/02/08 14:19:50;;;;;;;14.87;12.97;;;7.90;99.90;;;;;;5032478;28;20644;-76
2024/02/08 14:22:20;;;;;;;13.57;12.20;;;7.90;99.90;;;;;;5030315;28;20180;-75
2024/02/08 14:24:52;;;;;;;15.63;14.03;;;7.90;99.90;;;;;;5030797;28;20554;-75
2024/02/08 14:27:19;;;;;;;15.23;13.50;;;7.90;99.90;;;;;;5031044;28;20236;-75
2024/02/08 14:29:47;;;;;;;15.43;13.80;;;8.00;99.90;;;;;;5030840;28;20171;-75
2024/02/08 14:32:13;;;;;;;14.40;13.00;;;8.00;99.90;;;;;;5030493;28;20175;-75
2024/02/08 14:34:40;;;;;;;16.23;13.63;;;8.00;99.90;;;;;;5032285;28;20697;-76
2024/02/08 14:37:10;;;;;;;15.50;12.83;;;8.00;99.90;;;;;;5070441;28;20350;-76
2024/02/08 14:39:36;;;;;;;13.40;11.83;;;8.10;99.90;;;;;;5070454;28;20170;-75
2024/02/08 14:42:17;;;;;;;14.37;12.87;;;8.10;99.90;;;;;;5051265;28;20179;-75
2024/02/08 14:44:44;;;;;;;17.90;13.20;;;8.00;99.90;;;;;;5050923;28;20703;-75
2024/02/08 14:47:36;;;;;;;16.83;13.03;;;8.10;99.90;;;;;;5053254;28;20221;-75
2024/02/08 14:50:15;;;;;;;14.60;12.33;;;8.00;99.90;;;;;;5029934;28;20649;-75
2024/02/08 14:52:44;;;;;;;13.83;12.43;;;8.10;99.90;;;;;;5043384;28;20188;-75
2024/02/08 14:55:10;;;;;;;16.03;13.30;;;8.10;99.90;;;;;;5054373;28;20175;-74
2024/02/08 14:57:42;;;;;;;15.07;12.60;;;8.10;99.90;;;;;;5054312;28;20260;-75
2024/02/08 15:03:07;;;;;;;12.87;11.67;;;8.00;99.90;;;;;;5062226;28;20193;-75
2024/02/08 15:05:46;;;;;;;14.73;13.13;;;8.10;99.90;;;;;;5051254;28;20571;-75
2024/02/08 15:11:03;;;;;;;14.57;13.00;;;8.00;99.90;;;;;;5053917;28;20198;-74
2024/02/08 15:13:49;;;;;;;15.03;11.77;;;8.00;99.90;;;;;;5054163;28;20175;-74
2024/02/08 15:16:21;;;;;;;14.37;12.97;;;7.90;99.90;;;;;;5053973;28;20206;-74